Sikuliaq — WDG7520 — position and weather

sailwx.info

Track history (hours):
 
Tides and Currents Weather Stations Pressure Air Temp Water Temp Dewpoint Dewpoint Depression Visibility Wind Speed Wind Dir Waves Ship Positions

Oceanographic research ship Sikuliaq (USA)

Owner: Mackay Communications, Raleigh, NC. More information available from US FCC via Universal Licensing System.

Last reported at 2018-Jun-22 20:00 UTC. Time now 2018-Jun-23 04:45 UTC.
Position N 64°48' W 170°06'.

Length 80 m; draft 6.2 m.

Type: Other ship. MMSI: 338417000.

Wind from 080 at 10 knots

Barometer 1009.8 mb
Air temperature 2.8 ° C
Water temperature 1.5 ° C

Date/timePositionNaut miles runAvg speedWind from/ knotsBaromVisibWave heightAir tempDewpointWater temp
2018-Jun-22 20:00N 64°48' W 170°06'10 9.7 080 / 101009.8 2.8 1.5
2018-Jun-22 19:00N 64°42' W 170°24'0 0.0 060 / 141009.2 3.0 2.4
2018-Jun-22 18:00N 64°42' W 170°24'0 0.0 050 / 171008.7 3.0 2.6
2018-Jun-22 17:00N 64°42' W 170°24'8 7.9 040 / 141008.5 3.0 2.8 2.6
2018-Jun-22 16:00N 64°36' W 170°36'8 7.9 040 / 181008.0 3.4 2.9 2.2
2018-Jun-22 15:00N 64°30' W 170°48'8 7.9 040 / 191007.3 3.6 3.0 2.7
2018-Jun-22 14:00N 64°24' W 171°00'7 6.5 040 / 201006.9 3.6 2.8 2.4
2018-Jun-22 13:00N 64°18' W 171°06'10 9.9 040 / 201006.8 3.7 2.8 2.6
2018-Jun-22 12:00N 64°12' W 171°24'7 6.5 020 / 181006.5 3.8 2.9 3.1
2018-Jun-22 11:00N 64°06' W 171°30'0 0.0 040 / 181006.6 4.1 3.2 3.9
2018-Jun-22 10:00N 64°06' W 171°30'1212.1 030 / 221006.2 4.0 3.5 3.4
2018-Jun-22 09:00N 64°12' W 171°06'10 9.9 040 / 161005.8 4.2 3.3 2.7
2018-Jun-22 08:00N 64°18' W 170°48'10 9.8 040 / 191005.6 4.2 3.4 3.2
2018-Jun-22 07:00N 64°24' W 170°30'8 7.9 040 / 201005.8 3.9 3.4 3.1
2018-Jun-22 06:00N 64°30' W 170°18'10 9.8 030 / 201005.8 3.8 3.4 2.2
2018-Jun-22 05:00N 64°36' W 170°00'7 6.5 030 / 231005.8 3.9 3.6 2.5
2018-Jun-22 04:00N 64°42' W 169°54'0 0.0 010 / 311005.4 3.8 3.8 2.5
2018-Jun-22 03:00N 64°42' W 169°54'3 2.6 020 / 301005.9 3.5 3.5 2.5
2018-Jun-22 02:00N 64°42' W 169°48'8 7.9 020 / 271006.0 3.3 3.3 2.4
2018-Jun-22 01:00N 64°48' W 169°36'10 9.7 020 / 281006.5 3.6 3.6 2.7
2018-Jun-22 00:00N 64°54' W 169°18'8 7.9 010 / 301007.0 3.6 3.6 2.5
2018-Jun-21 23:00N 65°00' W 169°06'0 0.0 1007.7 3.9 3.9 2.9
2018-Jun-21 22:00N 65°00' W 169°06'0 0.0 010 / 251008.0 3.7 3.7 2.9
2018-Jun-21 21:00N 65°00' W 169°06'0 0.0 1008.5 3.5 3.5 2.9
2018-Jun-21 20:00N 65°00' W 169°06'8 7.9 360 / 271008.6 3.3 3.3 2.9
2018-Jun-21 19:00N 65°06' W 169°18'6 6.0 360 / 231010.2 3.1 3.3
2018-Jun-21 18:00N 65°12' W 169°18'3 2.5 1011.3 2.8 2.8 3.4
2018-Jun-21 17:00N 65°12' W 169°24'8 7.8 360 / 251011.6 2.9 2.9 3.4
2018-Jun-21 16:00N 65°18' W 169°12'10 9.6 010 / 251012.3 3.3 3.6
2018-Jun-21 15:00N 65°24' W 168°54'6 6.5 010 / 261012.5 3.6 5.6
2018-Jun-21 14:00N 65°30' W 168°48'6 6.5 010 / 241012.9 3.2 5.5
2018-Jun-21 13:00N 65°36' W 168°42'6 6.5 010 / 181013.4 3.4 5.6
2018-Jun-21 12:00N 65°42' W 168°36'2 2.5 1013.8 3.0 4.9
2018-Jun-21 11:00N 65°42' W 168°30'2 2.5 360 / 191014.7 3.1 5.2
2018-Jun-21 10:00N 65°42' W 168°36'0 0.0 1015.1 2.8 5.2
2018-Jun-21 09:00N 65°42' W 168°36'1313.0 1015.1 3.1 6.1
2018-Jun-21 08:00N 65°54' W 168°48'8 7.7 010 / 211015.9 2.8 5.3
2018-Jun-21 07:00N 66°00' W 169°00'0 0.0 360 / 201016.0 2.7 4.1
2018-Jun-21 06:00N 66°00' W 169°00'6 6.5 360 / 201016.2 2.5 4.0
2018-Jun-21 05:00N 66°06' W 168°54'6 6.0 350 / 141016.4 3.8 3.0 4.9
2018-Jun-21 04:00N 66°12' W 168°54'1212.0 360 / 111016.9 3.8 2.7 4.9
2018-Jun-21 03:00N 66°24' W 168°54'6 6.5 360 / 121016.9 4.2 2.8 4.9
2018-Jun-21 02:00N 66°30' W 169°00'0 0.0 350 / 181016.9 3.0 2.7 5.6
2018-Jun-21 01:00N 66°30' W 169°00'6 6.0 340 / 131017.3 2.5 2.3 5.5
2018-Jun-21 00:00N 66°36' W 169°00'1212.0 350 / 111017.6 2.8 2.2 5.0
2018-Jun-20 23:00N 66°48' W 169°00'6 6.4 350 / 111017.6 3.2 2.4 4.0
2018-Jun-20 22:00N 66°54' W 168°54'6 6.4 1017.6 2.7 2.0 4.9
2018-Jun-20 21:00N 67°00' W 169°00'0 0.0 010 / 111017.4 2.0 2.0 3.9
2018-Jun-20 20:00N 67°00' W 169°00'2 2.3 360 / 111017.3 1.8 1.8 3.8
2018-Jun-20 19:00N 67°00' W 168°54'9 9.4 1017.1 2.0 1.8 3.8
2018-Jun-20 18:00N 67°00' W 168°30'9 9.2 1016.6 2.0 4.0
2018-Jun-20 17:00N 67°06' W 168°12'1111.1 010 / 141016.1 1.7 4.3
2018-Jun-20 16:00N 67°12' W 167°48'5 4.7 360 / 131015.7 1.4 3.5
2018-Jun-20 15:00N 67°12' W 167°36'0 0.0 350 / 101015.3 1.7 3.7
2018-Jun-20 14:00N 67°12' W 167°36'0 0.0 1015.2 1.9 3.3
2018-Jun-20 13:00N 67°12' W 167°36'9 9.3 1014.7 1.9 3.4
2018-Jun-20 12:00N 67°12' W 167°12'1111.1 340 / 141014.1 2.7 3.2
2018-Jun-20 11:00N 67°18' W 166°48'2 2.3 350 / 141013.7 3.5 3.4 3.1
2018-Jun-20 10:00N 67°18' W 166°42'7 6.9 340 / 111013.4 3.6 3.2 3.7
2018-Jun-20 09:00N 67°18' W 166°24'1111.0 340 / 161012.5 4.5 3.8 4.8
2018-Jun-20 08:00N 67°24' W 166°00'5 4.6 340 / 171011.7 5.7 4.4 6.0
2018-Jun-20 07:00N 67°24' W 165°48'0 0.0 330 / 151011.2 6.4 4.5 6.2
2018-Jun-20 06:00N 67°24' W 165°48'1111.0 340 / 161010.5 6.6 4.7 6.5
2018-Jun-20 05:00N 67°30' W 165°24'7 6.9 360 / 181009.8 8.1 4.2 6.5
2018-Jun-20 04:00N 67°30' W 165°06'5 4.6 340 / 221008.9 8.6 3.9 5.0
2018-Jun-20 03:00N 67°30' W 164°54'0 0.0 340 / 191008.3 8.4 4.4 5.4
2018-Jun-20 02:00N 67°30' W 164°54'8 7.5 330 / 171008.1 8.6 4.2 5.3
2018-Jun-20 01:00N 67°36' W 164°42'0 0.0 330 / 131007.7 8.9 4.1 5.5
2018-Jun-20 00:00N 67°36' W 164°42'0 0.0 320 / 121007.6 9.0 4.0 5.2
2018-Jun-19 23:00N 67°36' W 164°42'0 0.0 330 / 121007.5 8.7 4.1 5.3
2018-Jun-19 22:00N 67°36' W 164°42'0 0.0 330 / 111007.3 8.4 4.0 5.0
2018-Jun-19 21:00N 67°36' W 164°42'0 0.0 340 / 121007.2 8.3 4.1 5.0
2018-Jun-19 20:00N 67°36' W 164°42'0 0.0 350 / 71007.1 7.5 4.3 5.0
2018-Jun-19 19:00N 67°36' W 164°42'0 0.0 350 / 131007.0 7.3 3.9 4.9
2018-Jun-19 18:00N 67°36' W 164°42'0 0.0 010 / 141006.8 6.6 3.7 4.0
2018-Jun-19 17:00N 67°36' W 164°42'7 6.9 010 / 151006.6 6.6 3.8 4.7
2018-Jun-19 16:00N 67°36' W 164°24'5 4.6 010 / 101006.2 6.8 3.6 3.9
2018-Jun-19 15:00N 67°36' W 164°36'9 9.1 1005.7 6.4 3.2 4.5
2018-Jun-19 14:00N 67°30' W 164°54'0 0.0 020 / 191006.0 6.2 3.4 4.9
2018-Jun-19 13:00N 67°30' W 164°54'1312.9 010 / 221005.4 6.1 3.5 5.2
2018-Jun-19 12:00N 67°36' W 165°24'9 9.1 010 / 271005.5 4.8 3.1 5.4
2018-Jun-19 11:00N 67°36' W 165°48'9 9.1 010 / 311005.9 4.1 3.1 6.4
2018-Jun-19 10:00N 67°36' W 166°12'9 9.1 010 / 291006.8 4.3 2.1 6.0
2018-Jun-19 09:00N 67°36' W 166°36'9 9.1 1007.1 5.8 2.3 6.1
2018-Jun-19 08:00N 67°36' W 167°00'1111.4 360 / 281007.4 4.5 2.6 4.2
2018-Jun-19 07:00N 67°36' W 167°30'9 9.1 1008.0 3.2 2.4 3.3
2018-Jun-19 06:00N 67°36' W 167°54'9 9.1 010 / 281008.1 3.2 2.0 3.1
2018-Jun-19 05:00N 67°36' W 168°18'1110.9 010 / 291008.2 3.3 2.0 3.3
2018-Jun-19 04:00N 67°42' W 168°42'7 6.8 010 / 251008.3 4.0 1.6 3.2
2018-Jun-19 03:00N 67°42' W 169°00'2 2.3 020 / 231008.9 4.2 1.2 3.5
2018-Jun-19 02:00N 67°42' W 168°54'9 9.1 030 / 221008.6 4.8 0.9 3.3
2018-Jun-19 01:00N 67°48' W 168°36'0 0.0 020 / 231008.5 4.9 0.8 4.2
2018-Jun-19 00:00N 67°48' W 168°36'9 9.1 030 / 201008.4 4.8 1.2 4.2
2018-Jun-18 23:00N 67°54' W 168°18'2 2.3 030 / 201008.2 5.0 1.3 4.7
2018-Jun-18 22:00N 67°54' W 168°12'0 0.0 030 / 211008.1 4.8 1.1 5.0
2018-Jun-18 21:00N 67°54' W 168°12'0 0.0 040 / 191007.8 4.7 2.2 4.6
2018-Jun-18 20:00N 67°54' W 168°12'0 0.0 040 / 191007.6 4.7 2.3 4.5
2018-Jun-18 19:00N 67°54' W 168°12'0 0.0 040 / 211007.5 4.5 2.5 4.4
2018-Jun-18 18:00N 67°54' W 168°12'9 9.0 040 / 231007.0 5.1 2.6 4.4
2018-Jun-18 17:00N 68°00' W 167°54'0 0.0 040 / 141007.2 4.9 2.6 4.3
2018-Jun-18 16:00N 68°00' W 167°54'9 9.0 030 / 161007.1 4.3 2.4 4.3
2018-Jun-18 15:00N 68°06' W 167°36'2 2.2 030 / 161007.1 4.4 2.3 3.7
2018-Jun-18 14:00N 68°06' W 167°30'0 0.0 020 / 181006.9 4.0 2.2 3.7
2018-Jun-18 13:00N 68°06' W 167°30'6 6.4 020 / 181006.8 4.1 2.1 3.7
2018-Jun-18 12:00N 68°12' W 167°24'2 2.2 030 / 201006.8 4.1 1.8 3.7
2018-Jun-18 11:00N 68°12' W 167°18'4 4.5 020 / 191007.2 4.0 1.8 3.8
2018-Jun-18 10:00N 68°12' W 167°06'6 6.0 010 / 171007.4 4.1 1.8 3.5
2018-Jun-18 09:00N 68°18' W 167°06'4 4.4 020 / 201007.3 4.5 1.3 3.6
2018-Jun-18 08:00N 68°18' W 166°54'4 4.4 020 / 161007.3 4.5 1.2 3.3
2018-Jun-18 07:00N 68°18' W 167°06'7 7.5 020 / 221006.8 4.2 1.2 2.8
2018-Jun-18 06:00N 68°24' W 167°18'6 6.4 020 / 141007.7 4.5 1.4 3.7
2018-Jun-18 05:00N 68°30' W 167°12'1312.8 030 / 171008.0 3.8 1.3 3.7
2018-Jun-18 04:00N 68°42' W 167°00'1212.2 030 / 151008.5 3.3 1.3 3.4
2018-Jun-18 03:00N 68°54' W 166°54'0 0.0 060 / 151009.5 2.6 1.1 3.2
2018-Jun-18 02:00N 68°54' W 166°54'4 4.3 030 / 241009.2 2.3 0.8 2.9
2018-Jun-18 01:00N 68°54' W 166°42'6 6.5 030 / 271009.1 2.4 0.2 2.8
2018-Jun-18 00:00N 68°54' W 166°24'0 0.0 030 / 211009.6 2.2-0.4 3.2
2018-Jun-17 23:00N 68°54' W 166°24'6 6.5 040 / 191009.9 2.2-0.8 3.2
2018-Jun-17 22:00N 68°54' W 166°42'7 7.4 020 / 211009.6 2.1-0.8 2.7
2018-Jun-17 21:00N 69°00' W 166°54'6 6.0 040 / 181010.2 1.4-0.8 2.8
2018-Jun-17 20:00N 68°54' W 166°54'0 0.0 050 / 181010.6 1.1-0.4 2.7
2018-Jun-17 19:00N 68°54' W 166°54'0 0.0 040 / 171010.8 0.9-0.2 2.7
2018-Jun-17 18:00N 68°54' W 166°54'0 0.0 040 / 151011.1 0.8-0.0 2.7
2018-Jun-17 17:00N 68°54' W 166°54'0 0.0 040 / 181011.1 0.7-0.2 2.7
2018-Jun-17 16:00N 68°54' W 166°54'6 6.0 030 / 191011.1 0.5-0.1 2.7
2018-Jun-17 15:00N 69°00' W 166°54'6 6.4 040 / 151011.4 0.6-0.0 2.8
2018-Jun-17 14:00N 68°54' W 166°48'6 6.5 040 / 201011.4 1.1-0.1 2.9
2018-Jun-17 13:00N 68°54' W 166°30'7 7.4 040 / 201011.5 1.1 0.3 2.7
2018-Jun-17 12:00N 69°00' W 166°42'7 7.4 030 / 211011.8 0.7-0.2 2.4
2018-Jun-17 11:00N 69°06' W 166°54'7 7.4 030 / 211012.6 -0.1-0.2 2.4
2018-Jun-17 10:00N 69°12' W 167°06'7 7.4 030 / 181013.2 0.4 0.1 2.8
2018-Jun-17 09:00N 69°18' W 167°18'7 7.3 030 / 191013.5 0.1-0.0 2.8
2018-Jun-17 08:00N 69°24' W 167°30'0 0.0 030 / 181014.1 -0.5 2.8
2018-Jun-17 07:00N 69°24' W 167°30'6 6.4 030 / 151014.4 -0.8-0.8 2.9
2018-Jun-17 06:00N 69°18' W 167°36'7 7.4 030 / 171014.2 -0.6-0.7 3.0
2018-Jun-17 05:00N 69°12' W 167°48'6 6.4 050 / 171014.3 -0.3-0.8 3.6
2018-Jun-17 04:00N 69°06' W 167°54'6 6.0 030 / 181014.3 0.1-0.4 3.5
2018-Jun-17 03:00N 69°00' W 167°54'4 4.3 050 / 181014.4 0.5-0.2 3.6
2018-Jun-17 02:00N 69°00' W 168°06'9 8.6 030 / 181014.3 1.3-0.1 3.5
2018-Jun-17 01:00N 69°00' W 168°30'9 8.6 020 / 201014.6 1.8 0.3 3.6
2018-Jun-17 00:00N 69°00' W 168°54'0 0.0 020 / 171015.4 2.0-0.0 3.6
2018-Jun-16 23:00N 69°00' W 168°54'0 0.0 030 / 141015.6 1.0-0.5 3.5
2018-Jun-16 22:00N 69°00' W 168°54'0 0.0 030 / 141015.9 0.7-0.6 3.5
2018-Jun-16 21:00N 69°00' W 168°54'0 0.0 040 / 131016.0 0.4-0.5 3.4
2018-Jun-16 20:00N 69°00' W 168°54'0 0.0 040 / 171016.0 0.1-0.8 3.4
2018-Jun-16 19:00N 69°00' W 168°54'0 0.0 040 / 151015.9 -0.0-0.0 3.4
2018-Jun-16 18:00N 69°00' W 168°54'0 0.0 020 / 161015.8 -0.2 3.4
2018-Jun-16 17:00N 69°00' W 168°54'0 0.0 030 / 171015.8 -0.0-0.0 3.4
2018-Jun-16 16:00N 69°00' W 168°54'0 0.0 040 / 81016.0 0.1-0.4 3.4
2018-Jun-16 15:00N 69°00' W 168°54'6 6.0 030 / 181016.0 -0.0-0.3 3.4
2018-Jun-16 14:00N 69°06' W 168°54'6 6.4 030 / 201015.9 0.6-0.6 3.5
2018-Jun-16 13:00N 69°12' W 168°48'2 2.1 040 / 191016.0 1.1-0.1 3.0
2018-Jun-16 12:00N 69°12' W 168°54'6 6.0 050 / 161016.1 0.5-1.4 3.0
2018-Jun-16 11:00N 69°06' W 168°54'7 7.4 050 / 191016.1 0.7-1.6 3.5
2018-Jun-16 10:00N 69°00' W 168°42'7 7.4 040 / 211015.7 0.6-1.6 3.8
2018-Jun-16 09:00N 68°54' W 168°30'7 7.4 040 / 221015.4 -0.0-0.2 3.5
2018-Jun-16 08:00N 68°48' W 168°18'7 7.4 040 / 231015.3 0.2-0.4 3.6
2018-Jun-16 07:00N 68°42' W 168°06'7 7.4 030 / 201015.0 0.7 0.7 3.8
2018-Jun-16 06:00N 68°36' W 167°54'9 8.9 030 / 191014.9 0.9 0.7 3.8
2018-Jun-16 05:00N 68°30' W 167°36'4 4.4 020 / 211014.5 1.7 0.9 3.5
2018-Jun-16 04:00N 68°30' W 167°24'7 7.4 020 / 221014.4 1.5 0.5 3.0
2018-Jun-16 03:00N 68°24' W 167°12'7 7.5 020 / 201014.4 1.5 0.3 3.6
2018-Jun-16 02:00N 68°18' W 167°00'2 2.2 010 / 211014.3 1.5 0.9 3.8
2018-Jun-16 01:00N 68°18' W 167°06'9 9.0 330 / 221014.4 1.5 0.5 3.9
2018-Jun-16 00:00N 68°12' W 167°24'2 2.2 350 / 181015.4 1.0-0.5 4.0
2018-Jun-15 23:00N 68°12' W 167°18'0 0.0 340 / 181015.7 1.1-1.7 4.2
2018-Jun-15 22:00N 68°12' W 167°18'0 0.0 340 / 191015.7 1.0-1.9 4.3
2018-Jun-15 21:00N 68°12' W 167°18'0 0.0 1015.7 1.3-1.9 4.3
2018-Jun-15 20:00N 68°12' W 167°18'0 0.0 350 / 161015.7 1.1-0.5 4.3
2018-Jun-15 19:00N 68°12' W 167°18'0 0.0 1015.9 1.3-2.1 4.3
2018-Jun-15 18:00N 68°12' W 167°18'0 0.0 010 / 111015.8 1.3-3.6 4.3
2018-Jun-15 17:00N 68°12' W 167°18'0 0.0 020 / 161015.7 1.2-3.5 4.3
2018-Jun-15 16:00N 68°12' W 167°18'2 2.2 040 / 91015.6 0.9-4.0 4.2
2018-Jun-15 15:00N 68°12' W 167°12'6 6.4 030 / 131015.5 0.9-3.8 3.4
2018-Jun-15 14:00N 68°18' W 167°06'9 9.0 010 / 141015.3 0.6-3.0 3.7
2018-Jun-15 13:00N 68°12' W 167°24'7 7.5 020 / 141015.2 0.7-2.4 4.5
2018-Jun-15 12:00N 68°06' W 167°36'9 9.0 010 / 121015.1 1.1-0.5 5.2
2018-Jun-15 11:00N 68°00' W 167°54'8 7.5 020 / 111014.9 1.7-0.6 5.2
2018-Jun-15 10:00N 67°54' W 168°06'7 6.8 1015.1 1.9-0.7 5.2
2018-Jun-15 09:00N 67°54' W 168°24'8 7.5 020 / 61015.1 1.6-1.4 5.1
2018-Jun-15 08:00N 67°48' W 168°36'9 9.1 020 / 51015.3 0.9 0.9 4.0
2018-Jun-15 07:00N 67°42' W 168°54'5 4.6 010 / 51015.4 1.5-0.3 3.6
2018-Jun-15 06:00N 67°42' W 168°42'5 4.6 340 / 31015.8 1.7-0.3 2.8
2018-Jun-15 05:00N 67°42' W 168°54'2 2.3 340 / 41015.9 1.4-0.0 3.4
2018-Jun-15 04:00N 67°42' W 168°48'2 2.3 330 / 41016.1 0.9 0.8 3.2
2018-Jun-15 03:00N 67°42' W 168°42'5 4.6 300 / 61016.4 0.8 0.8 2.8
2018-Jun-15 02:00N 67°42' W 168°54'2 2.3 300 / 71016.8 0.7 0.7 3.1
2018-Jun-15 01:00N 67°42' W 169°00'0 0.0 300 / 81016.7 0.7 3.3
2018-Jun-15 00:00N 67°42' W 169°00'5 4.6 290 / 51016.6 0.7 0.7 3.3
2018-Jun-14 23:00N 67°42' W 168°48'2 2.3 290 / 61016.8 0.9 0.5 2.8
2018-Jun-14 22:00N 67°42' W 168°54'2 2.3 300 / 51016.9 1.0 1.0 3.1
2018-Jun-14 21:00N 67°42' W 169°00'0 0.0 320 / 71017.0 0.5 0.5 2.9
2018-Jun-14 20:00N 67°42' W 169°00'0 0.0 320 / 101017.0 0.3 0.2 3.0
2018-Jun-14 19:00N 67°42' W 169°00'0 0.0 330 / 91017.0 0.4 0.1 3.1
2018-Jun-14 18:00N 67°42' W 169°00'0 0.0 320 / 111016.9 0.4-0.3 3.0
2018-Jun-14 17:00N 67°42' W 169°00'8 7.5 330 / 111016.7 0.4-0.6 2.9
2018-Jun-14 16:00N 67°36' W 168°48'1312.8 320 / 121016.3 0.5-0.1 2.5
2018-Jun-14 15:00N 67°24' W 168°36'6 6.4 310 / 161016.5 0.3-0.1 2.3
2018-Jun-14 14:00N 67°18' W 168°30'8 7.6 310 / 161016.4 0.7-0.5 3.4
2018-Jun-14 13:00N 67°12' W 168°18'6 6.4 320 / 181016.7 0.2-0.0 3.1
2018-Jun-14 12:00N 67°06' W 168°12'8 7.6 340 / 141016.6 0.9-1.0 3.0
2018-Jun-14 11:00N 67°00' W 168°00'6 6.4 340 / 191016.5 1.1-0.8 2.3
2018-Jun-14 10:00N 66°54' W 167°54'8 7.6 350 / 211016.3 1.3-0.4 2.5
2018-Jun-14 09:00N 66°48' W 167°42'6 6.5 360 / 191015.9 1.7-0.5 2.5
2018-Jun-14 08:00N 66°42' W 167°36'6 6.5 340 / 211015.3 1.8-0.2 2.8
2018-Jun-14 07:00N 66°36' W 167°30'6 6.0 350 / 241014.4 2.0-0.0 2.8
2018-Jun-14 06:00N 66°42' W 167°30'8 7.6 340 / 271013.6 2.4 1.6 2.7
2018-Jun-14 05:00N 66°48' W 167°18'9 9.3 340 / 291012.6 2.4 1.8 2.6
2018-Jun-14 04:00N 66°54' W 167°00'9 9.3 330 / 281011.2 2.6 2.6 2.4
2018-Jun-14 03:00N 67°00' W 166°42'1413.9 320 / 301009.9 2.8 2.7 2.5
2018-Jun-14 02:00N 67°12' W 166°24'9 9.2 310 / 271008.7 3.7 3.3 3.8
2018-Jun-14 01:00N 67°18' W 166°06'9 9.2 310 / 231007.8 3.9 3.5 3.2
2018-Jun-14 00:00N 67°24' W 165°48'0 0.0 310 / 251007.3 4.2 3.7 7.3
2018-Jun-13 23:00N 67°24' W 165°48'2 2.3 310 / 161007.7 4.3 3.4 7.4
2018-Jun-13 22:00N 67°24' W 165°54'9 9.1 290 / 171008.2 4.8 3.4 7.1
2018-Jun-13 21:00N 67°30' W 166°12'0 0.0 230 / 121007.9 4.6 3.1 4.4
2018-Jun-13 20:00N 67°30' W 166°12'9 9.1 210 / 201008.9 4.7 3.5 5.5
2018-Jun-13 19:00N 67°24' W 165°54'2 2.3 180 / 251009.4 5.9 3.9 7.3
2018-Jun-13 18:00N 67°24' W 165°48'0 0.0 180 / 171012.0 5.7 3.2 6.9
2018-Jun-13 17:00N 67°24' W 165°48'0 0.0 170 / 161012.6 5.2 3.8 7.2
2018-Jun-13 16:00N 67°24' W 165°48'0 0.0 250 / 81014.3 4.9 3.9 7.2
2018-Jun-13 15:00N 67°24' W 165°48'0 0.0 250 / 91014.5 5.0 4.0 7.2
2018-Jun-13 14:00N 67°24' W 165°48'7 6.9 250 / 111015.2 5.2 3.2 7.1
2018-Jun-13 13:00N 67°24' W 166°06'6 6.4 240 / 121015.8 4.8 3.4 7.2
2018-Jun-13 12:00N 67°30' W 166°12'8 7.6 260 / 91016.8 3.8 3.0 5.1
2018-Jun-13 11:00N 67°24' W 166°00'2 2.3 260 / 91017.0 4.9 3.4 7.1
2018-Jun-13 10:00N 67°24' W 166°06'8 7.6 270 / 121017.5 4.6 3.4 7.1
2018-Jun-13 09:00N 67°18' W 166°18'8 7.6 270 / 121018.0 3.3 2.9 3.5
2018-Jun-13 08:00N 67°12' W 166°30'9 9.2 270 / 111018.2 3.1 2.8 2.8
2018-Jun-13 07:00N 67°06' W 166°48'5 4.7 280 / 111018.9 3.0 2.8 2.7
2018-Jun-13 06:00N 67°06' W 167°00'8 7.6 290 / 101019.0 2.9 2.7 2.8
2018-Jun-13 05:00N 67°00' W 167°12'9 9.3 290 / 121019.4 3.0 2.6 2.6
2018-Jun-13 04:00N 66°54' W 167°30'9 9.3 290 / 121019.9 3.2 2.6 2.6
2018-Jun-13 03:00N 66°48' W 167°48'5 4.7 280 / 111020.2 3.5 2.5 2.5
2018-Jun-13 02:00N 66°48' W 168°00'8 7.6 280 / 61020.3 3.6 2.4 3.0
2018-Jun-13 01:00N 66°42' W 168°12'0 0.0 300 / 71021.0 3.6 2.4 2.9
2018-Jun-13 00:00N 66°42' W 168°12'2 2.4 310 / 71021.0 3.2 2.6 2.7
2018-Jun-12 23:00N 66°42' W 168°18'9 9.3 300 / 131021.2 3.2 2.6 3.2
2018-Jun-12 22:00N 66°36' W 168°36'9 9.3 310 / 121021.4 3.3 2.5 4.2
2018-Jun-12 21:00N 66°30' W 168°54'2 2.4 320 / 121021.4 3.4 2.4 4.1
2018-Jun-12 20:00N 66°30' W 169°00'   330 / 111021.4 3.2 2.3 3.9
Track history (hours):
 
Tides and Currents Weather Stations Pressure Air Temp Water Temp Dewpoint Dewpoint Depression Visibility Wind Speed Wind Dir Waves Ship Positions

Oceanographic research ship Sikuliaq (USA)

Owner: Mackay Communications, Raleigh, NC. More information available from US FCC via Universal Licensing System.

Last reported at 2018-Jun-22 20:00 UTC. Time now 2018-Jun-23 04:45 UTC.
Position N 64°48' W 170°06'.

Length 80 m; draft 6.2 m.

Type: Other ship. MMSI: 338417000.

Wind from 080 at 10 knots

Barometer 1009.8 mb
Air temperature 2.8 ° C
Water temperature 1.5 ° C

Date/timePositionNaut miles runAvg speedWind from/ knotsBaromVisibWave heightAir tempDewpointWater temp
2018-Jun-22 20:00N 64°48' W 170°06'10 9.7 080 / 101009.8 2.8 1.5
2018-Jun-22 19:00N 64°42' W 170°24'0 0.0 060 / 141009.2 3.0 2.4
2018-Jun-22 18:00N 64°42' W 170°24'0 0.0 050 / 171008.7 3.0 2.6
2018-Jun-22 17:00N 64°42' W 170°24'8 7.9 040 / 141008.5 3.0 2.8 2.6
2018-Jun-22 16:00N 64°36' W 170°36'8 7.9 040 / 181008.0 3.4 2.9 2.2
2018-Jun-22 15:00N 64°30' W 170°48'8 7.9 040 / 191007.3 3.6 3.0 2.7
2018-Jun-22 14:00N 64°24' W 171°00'7 6.5 040 / 201006.9 3.6 2.8 2.4
2018-Jun-22 13:00N 64°18' W 171°06'10 9.9 040 / 201006.8 3.7 2.8 2.6
2018-Jun-22 12:00N 64°12' W 171°24'7 6.5 020 / 181006.5 3.8 2.9 3.1
2018-Jun-22 11:00N 64°06' W 171°30'0 0.0 040 / 181006.6 4.1 3.2 3.9
2018-Jun-22 10:00N 64°06' W 171°30'1212.1 030 / 221006.2 4.0 3.5 3.4
2018-Jun-22 09:00N 64°12' W 171°06'10 9.9 040 / 161005.8 4.2 3.3 2.7
2018-Jun-22 08:00N 64°18' W 170°48'10 9.8 040 / 191005.6 4.2 3.4 3.2
2018-Jun-22 07:00N 64°24' W 170°30'8 7.9 040 / 201005.8 3.9 3.4 3.1
2018-Jun-22 06:00N 64°30' W 170°18'10 9.8 030 / 201005.8 3.8 3.4 2.2
2018-Jun-22 05:00N 64°36' W 170°00'7 6.5 030 / 231005.8 3.9 3.6 2.5
2018-Jun-22 04:00N 64°42' W 169°54'0 0.0 010 / 311005.4 3.8 3.8 2.5
2018-Jun-22 03:00N 64°42' W 169°54'3 2.6 020 / 301005.9 3.5 3.5 2.5
2018-Jun-22 02:00N 64°42' W 169°48'8 7.9 020 / 271006.0 3.3 3.3 2.4
2018-Jun-22 01:00N 64°48' W 169°36'10 9.7 020 / 281006.5 3.6 3.6 2.7
2018-Jun-22 00:00N 64°54' W 169°18'8 7.9 010 / 301007.0 3.6 3.6 2.5
2018-Jun-21 23:00N 65°00' W 169°06'0 0.0 1007.7 3.9 3.9 2.9
2018-Jun-21 22:00N 65°00' W 169°06'0 0.0 010 / 251008.0 3.7 3.7 2.9
2018-Jun-21 21:00N 65°00' W 169°06'0 0.0 1008.5 3.5 3.5 2.9
2018-Jun-21 20:00N 65°00' W 169°06'8 7.9 360 / 271008.6 3.3 3.3 2.9
2018-Jun-21 19:00N 65°06' W 169°18'6 6.0 360 / 231010.2 3.1 3.3
2018-Jun-21 18:00N 65°12' W 169°18'3 2.5 1011.3 2.8 2.8 3.4
2018-Jun-21 17:00N 65°12' W 169°24'8 7.8 360 / 251011.6 2.9 2.9 3.4
2018-Jun-21 16:00N 65°18' W 169°12'10 9.6 010 / 251012.3 3.3 3.6
2018-Jun-21 15:00N 65°24' W 168°54'6 6.5 010 / 261012.5 3.6 5.6
2018-Jun-21 14:00N 65°30' W 168°48'6 6.5 010 / 241012.9 3.2 5.5
2018-Jun-21 13:00N 65°36' W 168°42'6 6.5 010 / 181013.4 3.4 5.6
2018-Jun-21 12:00N 65°42' W 168°36'2 2.5 1013.8 3.0 4.9
2018-Jun-21 11:00N 65°42' W 168°30'2 2.5 360 / 191014.7 3.1 5.2
2018-Jun-21 10:00N 65°42' W 168°36'0 0.0 1015.1 2.8 5.2
2018-Jun-21 09:00N 65°42' W 168°36'1313.0 1015.1 3.1 6.1
2018-Jun-21 08:00N 65°54' W 168°48'8 7.7 010 / 211015.9 2.8 5.3
2018-Jun-21 07:00N 66°00' W 169°00'0 0.0 360 / 201016.0 2.7 4.1
2018-Jun-21 06:00N 66°00' W 169°00'6 6.5 360 / 201016.2 2.5 4.0
2018-Jun-21 05:00N 66°06' W 168°54'6 6.0 350 / 141016.4 3.8 3.0 4.9
2018-Jun-21 04:00N 66°12' W 168°54'1212.0 360 / 111016.9 3.8 2.7 4.9
2018-Jun-21 03:00N 66°24' W 168°54'6 6.5 360 / 121016.9 4.2 2.8 4.9
2018-Jun-21 02:00N 66°30' W 169°00'0 0.0 350 / 181016.9 3.0 2.7 5.6
2018-Jun-21 01:00N 66°30' W 169°00'6 6.0 340 / 131017.3 2.5 2.3 5.5
2018-Jun-21 00:00N 66°36' W 169°00'1212.0 350 / 111017.6 2.8 2.2 5.0
2018-Jun-20 23:00N 66°48' W 169°00'6 6.4 350 / 111017.6 3.2 2.4 4.0
2018-Jun-20 22:00N 66°54' W 168°54'6 6.4 1017.6 2.7 2.0 4.9
2018-Jun-20 21:00N 67°00' W 169°00'0 0.0 010 / 111017.4 2.0 2.0 3.9
2018-Jun-20 20:00N 67°00' W 169°00'2 2.3 360 / 111017.3 1.8 1.8 3.8
2018-Jun-20 19:00N 67°00' W 168°54'9 9.4 1017.1 2.0 1.8 3.8
2018-Jun-20 18:00N 67°00' W 168°30'9 9.2 1016.6 2.0 4.0
2018-Jun-20 17:00N 67°06' W 168°12'1111.1 010 / 141016.1 1.7 4.3
2018-Jun-20 16:00N 67°12' W 167°48'5 4.7 360 / 131015.7 1.4 3.5
2018-Jun-20 15:00N 67°12' W 167°36'0 0.0 350 / 101015.3 1.7 3.7
2018-Jun-20 14:00N 67°12' W 167°36'0 0.0 1015.2 1.9 3.3
2018-Jun-20 13:00N 67°12' W 167°36'9 9.3 1014.7 1.9 3.4
2018-Jun-20 12:00N 67°12' W 167°12'1111.1 340 / 141014.1 2.7 3.2
2018-Jun-20 11:00N 67°18' W 166°48'2 2.3 350 / 141013.7 3.5 3.4 3.1
2018-Jun-20 10:00N 67°18' W 166°42'7 6.9 340 / 111013.4 3.6 3.2 3.7
2018-Jun-20 09:00N 67°18' W 166°24'1111.0 340 / 161012.5 4.5 3.8 4.8
2018-Jun-20 08:00N 67°24' W 166°00'5 4.6 340 / 171011.7 5.7 4.4 6.0
2018-Jun-20 07:00N 67°24' W 165°48'0 0.0 330 / 151011.2 6.4 4.5 6.2
2018-Jun-20 06:00N 67°24' W 165°48'1111.0 340 / 161010.5 6.6 4.7 6.5
2018-Jun-20 05:00N 67°30' W 165°24'7 6.9 360 / 181009.8 8.1 4.2 6.5
2018-Jun-20 04:00N 67°30' W 165°06'5 4.6 340 / 221008.9 8.6 3.9 5.0
2018-Jun-20 03:00N 67°30' W 164°54'0 0.0 340 / 191008.3 8.4 4.4 5.4
2018-Jun-20 02:00N 67°30' W 164°54'8 7.5 330 / 171008.1 8.6 4.2 5.3
2018-Jun-20 01:00N 67°36' W 164°42'0 0.0 330 / 131007.7 8.9 4.1 5.5
2018-Jun-20 00:00N 67°36' W 164°42'0 0.0 320 / 121007.6 9.0 4.0 5.2
2018-Jun-19 23:00N 67°36' W 164°42'0 0.0 330 / 121007.5 8.7 4.1 5.3
2018-Jun-19 22:00N 67°36' W 164°42'0 0.0 330 / 111007.3 8.4 4.0 5.0
2018-Jun-19 21:00N 67°36' W 164°42'0 0.0 340 / 121007.2 8.3 4.1 5.0
2018-Jun-19 20:00N 67°36' W 164°42'0 0.0 350 / 71007.1 7.5 4.3 5.0
2018-Jun-19 19:00N 67°36' W 164°42'0 0.0 350 / 131007.0 7.3 3.9 4.9
2018-Jun-19 18:00N 67°36' W 164°42'0 0.0 010 / 141006.8 6.6 3.7 4.0
2018-Jun-19 17:00N 67°36' W 164°42'7 6.9 010 / 151006.6 6.6 3.8 4.7
2018-Jun-19 16:00N 67°36' W 164°24'5 4.6 010 / 101006.2 6.8 3.6 3.9
2018-Jun-19 15:00N 67°36' W 164°36'9 9.1 1005.7 6.4 3.2 4.5
2018-Jun-19 14:00N 67°30' W 164°54'0 0.0 020 / 191006.0 6.2 3.4 4.9
2018-Jun-19 13:00N 67°30' W 164°54'1312.9 010 / 221005.4 6.1 3.5 5.2
2018-Jun-19 12:00N 67°36' W 165°24'9 9.1 010 / 271005.5 4.8 3.1 5.4
2018-Jun-19 11:00N 67°36' W 165°48'9 9.1 010 / 311005.9 4.1 3.1 6.4
2018-Jun-19 10:00N 67°36' W 166°12'9 9.1 010 / 291006.8 4.3 2.1 6.0
2018-Jun-19 09:00N 67°36' W 166°36'9 9.1 1007.1 5.8 2.3 6.1
2018-Jun-19 08:00N 67°36' W 167°00'1111.4 360 / 281007.4 4.5 2.6 4.2
2018-Jun-19 07:00N 67°36' W 167°30'9 9.1 1008.0 3.2 2.4 3.3
2018-Jun-19 06:00N 67°36' W 167°54'9 9.1 010 / 281008.1 3.2 2.0 3.1
2018-Jun-19 05:00N 67°36' W 168°18'1110.9 010 / 291008.2 3.3 2.0 3.3
2018-Jun-19 04:00N 67°42' W 168°42'7 6.8 010 / 251008.3 4.0 1.6 3.2
2018-Jun-19 03:00N 67°42' W 169°00'2 2.3 020 / 231008.9 4.2 1.2 3.5
2018-Jun-19 02:00N 67°42' W 168°54'9 9.1 030 / 221008.6 4.8 0.9 3.3
2018-Jun-19 01:00N 67°48' W 168°36'0 0.0 020 / 231008.5 4.9 0.8 4.2
2018-Jun-19 00:00N 67°48' W 168°36'9 9.1 030 / 201008.4 4.8 1.2 4.2
2018-Jun-18 23:00N 67°54' W 168°18'2 2.3 030 / 201008.2 5.0 1.3 4.7
2018-Jun-18 22:00N 67°54' W 168°12'0 0.0 030 / 211008.1 4.8 1.1 5.0
2018-Jun-18 21:00N 67°54' W 168°12'0 0.0 040 / 191007.8 4.7 2.2 4.6
2018-Jun-18 20:00N 67°54' W 168°12'0 0.0 040 / 191007.6 4.7 2.3 4.5
2018-Jun-18 19:00N 67°54' W 168°12'0 0.0 040 / 211007.5 4.5 2.5 4.4
2018-Jun-18 18:00N 67°54' W 168°12'9 9.0 040 / 231007.0 5.1 2.6 4.4
2018-Jun-18 17:00N 68°00' W 167°54'0 0.0 040 / 141007.2 4.9 2.6 4.3
2018-Jun-18 16:00N 68°00' W 167°54'9 9.0 030 / 161007.1 4.3 2.4 4.3
2018-Jun-18 15:00N 68°06' W 167°36'2 2.2 030 / 161007.1 4.4 2.3 3.7
2018-Jun-18 14:00N 68°06' W 167°30'0 0.0 020 / 181006.9 4.0 2.2 3.7
2018-Jun-18 13:00N 68°06' W 167°30'6 6.4 020 / 181006.8 4.1 2.1 3.7
2018-Jun-18 12:00N 68°12' W 167°24'2 2.2 030 / 201006.8 4.1 1.8 3.7
2018-Jun-18 11:00N 68°12' W 167°18'4 4.5 020 / 191007.2 4.0 1.8 3.8
2018-Jun-18 10:00N 68°12' W 167°06'6 6.0 010 / 171007.4 4.1 1.8 3.5
2018-Jun-18 09:00N 68°18' W 167°06'4 4.4 020 / 201007.3 4.5 1.3 3.6
2018-Jun-18 08:00N 68°18' W 166°54'4 4.4 020 / 161007.3 4.5 1.2 3.3
2018-Jun-18 07:00N 68°18' W 167°06'7 7.5 020 / 221006.8 4.2 1.2 2.8
2018-Jun-18 06:00N 68°24' W 167°18'6 6.4 020 / 141007.7 4.5 1.4 3.7
2018-Jun-18 05:00N 68°30' W 167°12'1312.8 030 / 171008.0 3.8 1.3 3.7
2018-Jun-18 04:00N 68°42' W 167°00'1212.2 030 / 151008.5 3.3 1.3 3.4
2018-Jun-18 03:00N 68°54' W 166°54'0 0.0 060 / 151009.5 2.6 1.1 3.2
2018-Jun-18 02:00N 68°54' W 166°54'4 4.3 030 / 241009.2 2.3 0.8 2.9
2018-Jun-18 01:00N 68°54' W 166°42'6 6.5 030 / 271009.1 2.4 0.2 2.8
2018-Jun-18 00:00N 68°54' W 166°24'0 0.0 030 / 211009.6 2.2-0.4 3.2
2018-Jun-17 23:00N 68°54' W 166°24'6 6.5 040 / 191009.9 2.2-0.8 3.2
2018-Jun-17 22:00N 68°54' W 166°42'7 7.4 020 / 211009.6 2.1-0.8 2.7
2018-Jun-17 21:00N 69°00' W 166°54'6 6.0 040 / 181010.2 1.4-0.8 2.8
2018-Jun-17 20:00N 68°54' W 166°54'0 0.0 050 / 181010.6 1.1-0.4 2.7
2018-Jun-17 19:00N 68°54' W 166°54'0 0.0 040 / 171010.8 0.9-0.2 2.7
2018-Jun-17 18:00N 68°54' W 166°54'0 0.0 040 / 151011.1 0.8-0.0 2.7
2018-Jun-17 17:00N 68°54' W 166°54'0 0.0 040 / 181011.1 0.7-0.2 2.7
2018-Jun-17 16:00N 68°54' W 166°54'6 6.0 030 / 191011.1 0.5-0.1 2.7
2018-Jun-17 15:00N 69°00' W 166°54'6 6.4 040 / 151011.4 0.6-0.0 2.8
2018-Jun-17 14:00N 68°54' W 166°48'6 6.5 040 / 201011.4 1.1-0.1 2.9
2018-Jun-17 13:00N 68°54' W 166°30'7 7.4 040 / 201011.5 1.1 0.3 2.7
2018-Jun-17 12:00N 69°00' W 166°42'7 7.4 030 / 211011.8 0.7-0.2 2.4
2018-Jun-17 11:00N 69°06' W 166°54'7 7.4 030 / 211012.6 -0.1-0.2 2.4
2018-Jun-17 10:00N 69°12' W 167°06'7 7.4 030 / 181013.2 0.4 0.1 2.8
2018-Jun-17 09:00N 69°18' W 167°18'7 7.3 030 / 191013.5 0.1-0.0 2.8
2018-Jun-17 08:00N 69°24' W 167°30'0 0.0 030 / 181014.1 -0.5 2.8
2018-Jun-17 07:00N 69°24' W 167°30'6 6.4 030 / 151014.4 -0.8-0.8 2.9
2018-Jun-17 06:00N 69°18' W 167°36'7 7.4 030 / 171014.2 -0.6-0.7 3.0
2018-Jun-17 05:00N 69°12' W 167°48'6 6.4 050 / 171014.3 -0.3-0.8 3.6
2018-Jun-17 04:00N 69°06' W 167°54'6 6.0 030 / 181014.3 0.1-0.4 3.5
2018-Jun-17 03:00N 69°00' W 167°54'4 4.3 050 / 181014.4 0.5-0.2 3.6
2018-Jun-17 02:00N 69°00' W 168°06'9 8.6 030 / 181014.3 1.3-0.1 3.5
2018-Jun-17 01:00N 69°00' W 168°30'9 8.6 020 / 201014.6 1.8 0.3 3.6
2018-Jun-17 00:00N 69°00' W 168°54'0 0.0 020 / 171015.4 2.0-0.0 3.6
2018-Jun-16 23:00N 69°00' W 168°54'0 0.0 030 / 141015.6 1.0-0.5 3.5
2018-Jun-16 22:00N 69°00' W 168°54'0 0.0 030 / 141015.9 0.7-0.6 3.5
2018-Jun-16 21:00N 69°00' W 168°54'0 0.0 040 / 131016.0 0.4-0.5 3.4
2018-Jun-16 20:00N 69°00' W 168°54'0 0.0 040 / 171016.0 0.1-0.8 3.4
2018-Jun-16 19:00N 69°00' W 168°54'0 0.0 040 / 151015.9 -0.0-0.0 3.4
2018-Jun-16 18:00N 69°00' W 168°54'0 0.0 020 / 161015.8 -0.2 3.4
2018-Jun-16 17:00N 69°00' W 168°54'0 0.0 030 / 171015.8 -0.0-0.0 3.4
2018-Jun-16 16:00N 69°00' W 168°54'0 0.0 040 / 81016.0 0.1-0.4 3.4
2018-Jun-16 15:00N 69°00' W 168°54'6 6.0 030 / 181016.0 -0.0-0.3 3.4
2018-Jun-16 14:00N 69°06' W 168°54'6 6.4 030 / 201015.9 0.6-0.6 3.5
2018-Jun-16 13:00N 69°12' W 168°48'2 2.1 040 / 191016.0 1.1-0.1 3.0
2018-Jun-16 12:00N 69°12' W 168°54'6 6.0 050 / 161016.1 0.5-1.4 3.0
2018-Jun-16 11:00N 69°06' W 168°54'7 7.4 050 / 191016.1 0.7-1.6 3.5
2018-Jun-16 10:00N 69°00' W 168°42'7 7.4 040 / 211015.7 0.6-1.6 3.8
2018-Jun-16 09:00N 68°54' W 168°30'7 7.4 040 / 221015.4 -0.0-0.2 3.5
2018-Jun-16 08:00N 68°48' W 168°18'7 7.4 040 / 231015.3 0.2-0.4 3.6
2018-Jun-16 07:00N 68°42' W 168°06'7 7.4 030 / 201015.0 0.7 0.7 3.8
2018-Jun-16 06:00N 68°36' W 167°54'9 8.9 030 / 191014.9 0.9 0.7 3.8
2018-Jun-16 05:00N 68°30' W 167°36'4 4.4 020 / 211014.5 1.7 0.9 3.5
2018-Jun-16 04:00N 68°30' W 167°24'7 7.4 020 / 221014.4 1.5 0.5 3.0
2018-Jun-16 03:00N 68°24' W 167°12'7 7.5 020 / 201014.4 1.5 0.3 3.6
2018-Jun-16 02:00N 68°18' W 167°00'2 2.2 010 / 211014.3 1.5 0.9 3.8
2018-Jun-16 01:00N 68°18' W 167°06'9 9.0 330 / 221014.4 1.5 0.5 3.9
2018-Jun-16 00:00N 68°12' W 167°24'2 2.2 350 / 181015.4 1.0-0.5 4.0
2018-Jun-15 23:00N 68°12' W 167°18'0 0.0 340 / 181015.7 1.1-1.7 4.2
2018-Jun-15 22:00N 68°12' W 167°18'0 0.0 340 / 191015.7 1.0-1.9 4.3
2018-Jun-15 21:00N 68°12' W 167°18'0 0.0 1015.7 1.3-1.9 4.3
2018-Jun-15 20:00N 68°12' W 167°18'0 0.0 350 / 161015.7 1.1-0.5 4.3
2018-Jun-15 19:00N 68°12' W 167°18'0 0.0 1015.9 1.3-2.1 4.3
2018-Jun-15 18:00N 68°12' W 167°18'0 0.0 010 / 111015.8 1.3-3.6 4.3
2018-Jun-15 17:00N 68°12' W 167°18'0 0.0 020 / 161015.7 1.2-3.5 4.3
2018-Jun-15 16:00N 68°12' W 167°18'2 2.2 040 / 91015.6 0.9-4.0 4.2
2018-Jun-15 15:00N 68°12' W 167°12'6 6.4 030 / 131015.5 0.9-3.8 3.4
2018-Jun-15 14:00N 68°18' W 167°06'9 9.0 010 / 141015.3 0.6-3.0 3.7
2018-Jun-15 13:00N 68°12' W 167°24'7 7.5 020 / 141015.2 0.7-2.4 4.5
2018-Jun-15 12:00N 68°06' W 167°36'9 9.0 010 / 121015.1 1.1-0.5 5.2
2018-Jun-15 11:00N 68°00' W 167°54'8 7.5 020 / 111014.9 1.7-0.6 5.2
2018-Jun-15 10:00N 67°54' W 168°06'7 6.8 1015.1 1.9-0.7 5.2
2018-Jun-15 09:00N 67°54' W 168°24'8 7.5 020 / 61015.1 1.6-1.4 5.1
2018-Jun-15 08:00N 67°48' W 168°36'9 9.1 020 / 51015.3 0.9 0.9 4.0
2018-Jun-15 07:00N 67°42' W 168°54'5 4.6 010 / 51015.4 1.5-0.3 3.6
2018-Jun-15 06:00N 67°42' W 168°42'5 4.6 340 / 31015.8 1.7-0.3 2.8
2018-Jun-15 05:00N 67°42' W 168°54'2 2.3 340 / 41015.9 1.4-0.0 3.4
2018-Jun-15 04:00N 67°42' W 168°48'2 2.3 330 / 41016.1 0.9 0.8 3.2
2018-Jun-15 03:00N 67°42' W 168°42'5 4.6 300 / 61016.4 0.8 0.8 2.8
2018-Jun-15 02:00N 67°42' W 168°54'2 2.3 300 / 71016.8 0.7 0.7 3.1
2018-Jun-15 01:00N 67°42' W 169°00'0 0.0 300 / 81016.7 0.7 3.3
2018-Jun-15 00:00N 67°42' W 169°00'5 4.6 290 / 51016.6 0.7 0.7 3.3
2018-Jun-14 23:00N 67°42' W 168°48'2 2.3 290 / 61016.8 0.9 0.5 2.8
2018-Jun-14 22:00N 67°42' W 168°54'2 2.3 300 / 51016.9 1.0 1.0 3.1
2018-Jun-14 21:00N 67°42' W 169°00'0 0.0 320 / 71017.0 0.5 0.5 2.9
2018-Jun-14 20:00N 67°42' W 169°00'0 0.0 320 / 101017.0 0.3 0.2 3.0
2018-Jun-14 19:00N 67°42' W 169°00'0 0.0 330 / 91017.0 0.4 0.1 3.1
2018-Jun-14 18:00N 67°42' W 169°00'0 0.0 320 / 111016.9 0.4-0.3 3.0
2018-Jun-14 17:00N 67°42' W 169°00'8 7.5 330 / 111016.7 0.4-0.6 2.9
2018-Jun-14 16:00N 67°36' W 168°48'1312.8 320 / 121016.3 0.5-0.1 2.5
2018-Jun-14 15:00N 67°24' W 168°36'6 6.4 310 / 161016.5 0.3-0.1 2.3
2018-Jun-14 14:00N 67°18' W 168°30'8 7.6 310 / 161016.4 0.7-0.5 3.4
2018-Jun-14 13:00N 67°12' W 168°18'6 6.4 320 / 181016.7 0.2-0.0 3.1
2018-Jun-14 12:00N 67°06' W 168°12'8 7.6 340 / 141016.6 0.9-1.0 3.0
2018-Jun-14 11:00N 67°00' W 168°00'6 6.4 340 / 191016.5 1.1-0.8 2.3
2018-Jun-14 10:00N 66°54' W 167°54'8 7.6 350 / 211016.3 1.3-0.4 2.5
2018-Jun-14 09:00N 66°48' W 167°42'6 6.5 360 / 191015.9 1.7-0.5 2.5
2018-Jun-14 08:00N 66°42' W 167°36'6 6.5 340 / 211015.3 1.8-0.2 2.8
2018-Jun-14 07:00N 66°36' W 167°30'6 6.0 350 / 241014.4 2.0-0.0 2.8
2018-Jun-14 06:00N 66°42' W 167°30'8 7.6 340 / 271013.6 2.4 1.6 2.7
2018-Jun-14 05:00N 66°48' W 167°18'9 9.3 340 / 291012.6 2.4 1.8 2.6
2018-Jun-14 04:00N 66°54' W 167°00'9 9.3 330 / 281011.2 2.6 2.6 2.4
2018-Jun-14 03:00N 67°00' W 166°42'1413.9 320 / 301009.9 2.8 2.7 2.5
2018-Jun-14 02:00N 67°12' W 166°24'9 9.2 310 / 271008.7 3.7 3.3 3.8
2018-Jun-14 01:00N 67°18' W 166°06'9 9.2 310 / 231007.8 3.9 3.5 3.2
2018-Jun-14 00:00N 67°24' W 165°48'0 0.0 310 / 251007.3 4.2 3.7 7.3
2018-Jun-13 23:00N 67°24' W 165°48'2 2.3 310 / 161007.7 4.3 3.4 7.4
2018-Jun-13 22:00N 67°24' W 165°54'9 9.1 290 / 171008.2 4.8 3.4 7.1
2018-Jun-13 21:00N 67°30' W 166°12'0 0.0 230 / 121007.9 4.6 3.1 4.4
2018-Jun-13 20:00N 67°30' W 166°12'9 9.1 210 / 201008.9 4.7 3.5 5.5
2018-Jun-13 19:00N 67°24' W 165°54'2 2.3 180 / 251009.4 5.9 3.9 7.3
2018-Jun-13 18:00N 67°24' W 165°48'0 0.0 180 / 171012.0 5.7 3.2 6.9
2018-Jun-13 17:00N 67°24' W 165°48'0 0.0 170 / 161012.6 5.2 3.8 7.2
2018-Jun-13 16:00N 67°24' W 165°48'0 0.0 250 / 81014.3 4.9 3.9 7.2
2018-Jun-13 15:00N 67°24' W 165°48'0 0.0 250 / 91014.5 5.0 4.0 7.2
2018-Jun-13 14:00N 67°24' W 165°48'7 6.9 250 / 111015.2 5.2 3.2 7.1
2018-Jun-13 13:00N 67°24' W 166°06'6 6.4 240 / 121015.8 4.8 3.4 7.2
2018-Jun-13 12:00N 67°30' W 166°12'8 7.6 260 / 91016.8 3.8 3.0 5.1
2018-Jun-13 11:00N 67°24' W 166°00'2 2.3 260 / 91017.0 4.9 3.4 7.1
2018-Jun-13 10:00N 67°24' W 166°06'8 7.6 270 / 121017.5 4.6 3.4 7.1
2018-Jun-13 09:00N 67°18' W 166°18'8 7.6 270 / 121018.0 3.3 2.9 3.5
2018-Jun-13 08:00N 67°12' W 166°30'9 9.2 270 / 111018.2 3.1 2.8 2.8
2018-Jun-13 07:00N 67°06' W 166°48'5 4.7 280 / 111018.9 3.0 2.8 2.7
2018-Jun-13 06:00N 67°06' W 167°00'8 7.6 290 / 101019.0 2.9 2.7 2.8
2018-Jun-13 05:00N 67°00' W 167°12'9 9.3 290 / 121019.4 3.0 2.6 2.6
2018-Jun-13 04:00N 66°54' W 167°30'9 9.3 290 / 121019.9 3.2 2.6 2.6
2018-Jun-13 03:00N 66°48' W 167°48'5 4.7 280 / 111020.2 3.5 2.5 2.5
2018-Jun-13 02:00N 66°48' W 168°00'8 7.6 280 / 61020.3 3.6 2.4 3.0
2018-Jun-13 01:00N 66°42' W 168°12'0 0.0 300 / 71021.0 3.6 2.4 2.9
2018-Jun-13 00:00N 66°42' W 168°12'2 2.4 310 / 71021.0 3.2 2.6 2.7
2018-Jun-12 23:00N 66°42' W 168°18'9 9.3 300 / 131021.2 3.2 2.6 3.2
2018-Jun-12 22:00N 66°36' W 168°36'9 9.3 310 / 121021.4 3.3 2.5 4.2
2018-Jun-12 21:00N 66°30' W 168°54'2 2.4 320 / 121021.4 3.4 2.4 4.1
2018-Jun-12 20:00N 66°30' W 169°00'   330 / 111021.4 3.2 2.3 3.9

Dump ship's entire track history